Time;durP1;ratioP1;P1;durP2;ratioP2;P2;SDS_P1;SDS_P2;PMS_P1;PMS_P2;Temp;Humidity;BMP_temperature;BMP_pressure;BME280_temperature;BME280_humidity;BME280_pressure;Samples;Min_cycle;Max_cycle;Signal;HPM_P1;HPM_P2
2023/07/31 04:32:16;;;;;;;18.67;5.32;;;18.40;80.70;;;;;;5037223;23;20052;-77
2023/07/31 04:34:42;;;;;;;21.25;5.20;;;18.50;80.70;;;;;;4905635;29;20027;-77
2023/07/31 04:37:07;;;;;;;16.63;6.00;;;18.50;80.60;;;;;;4905550;29;20387;-77
2023/07/31 04:39:33;;;;;;;20.92;5.68;;;18.50;80.60;;;;;;4905475;29;20052;-77
2023/07/31 04:41:58;;;;;;;18.40;4.90;;;18.50;80.70;;;;;;4905644;29;20039;-77
2023/07/31 04:44:24;;;;;;;16.90;4.78;;;18.50;80.60;;;;;;4905343;29;20068;-77
2023/07/31 04:46:50;;;;;;;20.45;6.13;;;18.50;80.70;;;;;;4888643;29;20033;-77
2023/07/31 04:49:15;;;;;;;21.05;5.47;;;18.50;80.80;;;;;;4888409;29;20103;-77
2023/07/31 04:51:41;;;;;;;19.58;5.32;;;18.50;80.80;;;;;;4905227;29;20365;-77
2023/07/31 04:54:06;;;;;;;17.73;4.40;;;18.50;80.80;;;;;;4905287;29;20021;-77
2023/07/31 04:56:32;;;;;;;16.75;4.80;;;18.50;81.00;;;;;;4888350;29;20128;-77
2023/07/31 04:58:58;;;;;;;20.17;4.90;;;18.60;80.90;;;;;;4905296;29;20024;-77
2023/07/31 05:01:23;;;;;;;14.15;5.60;;;18.50;81.00;;;;;;4920622;29;20060;-77
2023/07/31 05:03:49;;;;;;;20.83;5.00;;;18.50;81.10;;;;;;4924028;29;20506;-78
2023/07/31 05:06:15;;;;;;;18.15;5.05;;;18.60;81.30;;;;;;4924398;29;20039;-77
2023/07/31 05:08:40;;;;;;;21.13;5.05;;;18.60;81.20;;;;;;4924438;29;20039;-77
2023/07/31 05:11:06;;;;;;;24.42;5.63;;;18.60;81.10;;;;;;4924289;29;20029;-78
2023/07/31 05:13:32;;;;;;;20.23;5.97;;;18.60;81.10;;;;;;4924235;29;20495;-78
2023/07/31 05:15:57;;;;;;;17.85;5.03;;;18.60;81.20;;;;;;4924329;29;20084;-77
2023/07/31 05:18:23;;;;;;;16.05;5.53;;;18.60;81.20;;;;;;4924293;29;20024;-78
2023/07/31 05:20:49;;;;;;;25.70;5.47;;;18.60;81.10;;;;;;4924263;29;20032;-77
2023/07/31 05:23:14;;;;;;;20.02;5.43;;;18.70;81.00;;;;;;4906980;29;20399;-77
2023/07/31 05:25:40;;;;;;;18.50;5.30;;;18.70;81.00;;;;;;4924059;29;20066;-77
2023/07/31 05:28:05;;;;;;;19.80;6.43;;;18.70;81.10;;;;;;4924259;29;20032;-78
2023/07/31 05:30:31;;;;;;;19.67;4.93;;;18.70;81.20;;;;;;4923513;29;20055;-77
2023/07/31 05:32:57;;;;;;;14.10;4.95;;;18.70;81.10;;;;;;4923740;29;20124;-77
2023/07/31 05:35:22;;;;;;;21.40;5.97;;;18.70;81.10;;;;;;4923905;29;20052;-78
2023/07/31 05:37:48;;;;;;;20.55;5.90;;;18.70;81.20;;;;;;4922864;29;20016;-77
2023/07/31 05:40:14;;;;;;;15.75;5.32;;;18.80;81.10;;;;;;4924099;29;20020;-78
2023/07/31 05:42:40;;;;;;;15.13;5.57;;;18.80;81.00;;;;;;4923709;29;20031;-78
2023/07/31 05:45:07;;;;;;;20.40;5.38;;;18.80;81.00;;;;;;4906587;29;20040;-77
2023/07/31 05:47:33;;;;;;;24.92;5.53;;;18.80;80.80;;;;;;4924011;29;20024;-77
2023/07/31 05:49:58;;;;;;;16.23;4.60;;;18.80;81.00;;;;;;4906562;29;20036;-78
2023/07/31 05:52:24;;;;;;;13.32;4.55;;;18.80;80.90;;;;;;4923413;29;20395;-77
2023/07/31 05:54:50;;;;;;;15.93;4.53;;;18.80;81.00;;;;;;4923509;29;20028;-78
2023/07/31 05:57:16;;;;;;;17.23;5.85;;;18.90;80.90;;;;;;4923622;29;20550;-78
2023/07/31 05:59:41;;;;;;;21.90;5.30;;;18.80;81.00;;;;;;4923363;29;20024;-78
2023/07/31 06:02:07;;;;;;;17.45;4.68;;;18.80;81.10;;;;;;4923286;29;20028;-77
2023/07/31 06:04:33;;;;;;;19.88;4.65;;;18.90;81.00;;;;;;4907153;29;20032;-78
2023/07/31 06:07:00;;;;;;;15.60;4.88;;;18.80;81.00;;;;;;4906194;29;20051;-77
2023/07/31 06:09:26;;;;;;;18.55;6.72;;;18.90;80.90;;;;;;4906394;29;20028;-77
2023/07/31 06:11:51;;;;;;;16.48;4.55;;;19.00;80.80;;;;;;4923356;29;20052;-77
2023/07/31 06:14:17;;;;;;;16.17;4.93;;;19.00;80.50;;;;;;4923188;29;20104;-77
2023/07/31 06:16:44;;;;;;;13.68;5.10;;;19.00;80.60;;;;;;4923343;29;20024;-77
2023/07/31 06:19:09;;;;;;;13.10;3.95;;;19.00;80.30;;;;;;4923115;29;20024;-78
2023/07/31 06:21:37;;;;;;;13.00;4.20;;;19.00;80.40;;;;;;4923168;29;20087;-78
2023/07/31 06:24:03;;;;;;;13.05;4.38;;;19.10;80.30;;;;;;4922427;29;20030;-77
2023/07/31 06:26:29;;;;;;;14.75;4.20;;;19.20;80.20;;;;;;4906145;29;20111;-78
2023/07/31 06:28:54;;;;;;;19.63;4.97;;;19.20;80.10;;;;;;4922989;29;20066;-77
2023/07/31 06:31:22;;;;;;;14.07;4.07;;;19.20;80.10;;;;;;4922882;29;20055;-78
2023/07/31 06:33:49;;;;;;;14.35;4.55;;;19.10;80.10;;;;;;4922596;29;20107;-78
2023/07/31 06:36:14;;;;;;;14.05;4.50;;;19.20;80.00;;;;;;4922849;29;20103;-78
2023/07/31 06:38:40;;;;;;;13.23;4.20;;;19.20;80.00;;;;;;4922876;29;20057;-77
2023/07/31 06:41:06;;;;;;;14.93;3.92;;;19.30;80.00;;;;;;4922550;29;20028;-77
2023/07/31 06:43:31;;;;;;;17.40;3.83;;;19.30;80.00;;;;;;4922690;29;20035;-78
2023/07/31 06:45:57;;;;;;;14.13;4.15;;;19.30;79.80;;;;;;4905725;29;20020;-77
2023/07/31 06:48:23;;;;;;;12.20;4.03;;;19.30;79.80;;;;;;4922527;29;20111;-78
2023/07/31 06:50:48;;;;;;;14.00;3.70;;;19.40;79.60;;;;;;4922426;29;20032;-78
2023/07/31 06:53:14;;;;;;;17.92;4.07;;;19.40;79.60;;;;;;4922438;29;20033;-78
2023/07/31 06:55:40;;;;;;;10.95;3.92;;;19.30;79.70;;;;;;4922388;29;20052;-78
2023/07/31 06:58:06;;;;;;;11.20;3.97;;;19.30;79.80;;;;;;4922557;29;20088;-78
2023/07/31 07:00:32;;;;;;;17.90;4.95;;;19.30;79.90;;;;;;4922229;29;20024;-77
2023/07/31 07:02:58;;;;;;;12.65;3.88;;;19.30;80.10;;;;;;4922283;29;20439;-77
2023/07/31 07:05:23;;;;;;;13.73;4.53;;;19.30;80.10;;;;;;4922361;29;20024;-77
2023/07/31 07:07:51;;;;;;;13.52;4.05;;;19.30;80.20;;;;;;4922263;29;20024;-77
2023/07/31 07:10:17;;;;;;;17.77;4.75;;;19.30;80.20;;;;;;4922243;29;20442;-77
2023/07/31 07:12:42;;;;;;;16.27;4.07;;;19.30;80.10;;;;;;4904999;29;20035;-76
2023/07/31 07:15:08;;;;;;;14.57;4.22;;;19.30;80.10;;;;;;4905125;29;20032;-77
2023/07/31 07:17:34;;;;;;;10.90;3.83;;;19.30;80.00;;;;;;4922269;29;20020;-77
2023/07/31 07:20:00;;;;;;;13.73;4.72;;;19.40;80.00;;;;;;4904974;29;20102;-78
2023/07/31 07:22:27;;;;;;;12.27;3.80;;;19.50;79.80;;;;;;4921935;29;20451;-77
2023/07/31 07:24:53;;;;;;;11.93;3.53;;;19.50;79.40;;;;;;4922014;29;20515;-78
2023/07/31 07:27:19;;;;;;;16.42;4.45;;;19.50;79.50;;;;;;4922046;29;20020;-78
2023/07/31 07:29:45;;;;;;;13.32;4.07;;;19.50;79.30;;;;;;4904759;29;20032;-78
2023/07/31 07:32:11;;;;;;;11.95;3.88;;;19.50;79.40;;;;;;4921142;29;20087;-78
2023/07/31 07:34:37;;;;;;;16.83;4.03;;;19.40;79.60;;;;;;4921947;29;20580;-78
2023/07/31 07:37:03;;;;;;;6.70;2.42;;;19.40;79.70;;;;;;4921786;29;20028;-78
2023/07/31 07:39:29;;;;;;;14.15;3.78;;;19.40;79.70;;;;;;4921581;29;20032;-78
2023/07/31 07:41:54;;;;;;;20.25;5.15;;;19.40;79.80;;;;;;4921801;29;20024;-78
2023/07/31 07:44:20;;;;;;;10.48;3.38;;;19.40;79.70;;;;;;4904749;29;20032;-78
2023/07/31 07:46:45;;;;;;;21.88;4.97;;;19.40;79.80;;;;;;4921603;29;20091;-78
2023/07/31 07:49:11;;;;;;;17.65;4.50;;;19.40;79.80;;;;;;4921881;29;20032;-78
2023/07/31 07:51:37;;;;;;;15.25;3.53;;;19.50;79.80;;;;;;4921596;29;20411;-78
2023/07/31 07:54:02;;;;;;;12.25;3.63;;;19.60;79.80;;;;;;4904535;29;20032;-78
2023/07/31 07:56:28;;;;;;;16.95;4.25;;;19.50;79.80;;;;;;4921558;29;20443;-78
2023/07/31 07:58:54;;;;;;;10.43;3.75;;;19.60;80.00;;;;;;4921512;29;20024;-78
2023/07/31 08:01:20;;;;;;;12.35;3.95;;;19.50;79.90;;;;;;4920888;29;20035;-78
2023/07/31 08:03:47;;;;;;;11.48;4.25;;;19.60;80.00;;;;;;4920872;29;20410;-78
2023/07/31 08:06:13;;;;;;;15.93;3.83;;;19.60;79.90;;;;;;4921387;29;20099;-78
2023/07/31 08:08:39;;;;;;;10.52;3.63;;;19.60;80.00;;;;;;4921413;29;20028;-78
2023/07/31 08:11:04;;;;;;;11.90;3.42;;;19.70;79.90;;;;;;4921404;29;20031;-78
2023/07/31 08:13:30;;;;;;;17.50;3.25;;;19.60;80.20;;;;;;4921599;29;20020;-78
2023/07/31 08:15:55;;;;;;;12.88;3.53;;;19.70;80.30;;;;;;4921411;29;20060;-78
2023/07/31 08:18:21;;;;;;;13.35;3.67;;;19.60;80.10;;;;;;4921242;29;20084;-78
2023/07/31 08:20:47;;;;;;;15.38;3.78;;;19.70;80.40;;;;;;4921441;29;20021;-77
2023/07/31 08:23:13;;;;;;;7.35;3.58;;;19.70;80.40;;;;;;4921322;29;20035;-77
2023/07/31 08:25:38;;;;;;;9.05;3.42;;;19.70;80.30;;;;;;4921379;29;20035;-78
2023/07/31 08:28:05;;;;;;;11.25;3.83;;;19.70;80.40;;;;;;4920853;29;20035;-78
2023/07/31 08:30:33;;;;;;;14.77;4.15;;;19.80;80.50;;;;;;4920773;29;20131;-78
2023/07/31 08:32:59;;;;;;;9.80;2.95;;;19.70;80.70;;;;;;4921051;29;20033;-78
2023/07/31 08:35:25;;;;;;;7.53;3.03;;;19.70;80.90;;;;;;4921204;29;20032;-78
2023/07/31 08:37:51;;;;;;;9.63;3.28;;;19.70;81.00;;;;;;4921242;29;20574;-78
2023/07/31 08:40:17;;;;;;;16.13;3.55;;;19.70;81.40;;;;;;4921350;29;20032;-78
2023/07/31 08:42:46;;;;;;;7.47;3.20;;;19.70;82.00;;;;;;4921124;29;20498;-78
2023/07/31 08:45:17;;;;;;;10.75;3.10;;;19.60;82.20;;;;;;4921310;29;20032;-78
2023/07/31 08:47:45;;;;;;;10.18;2.97;;;19.70;82.30;;;;;;4904185;29;20070;-78
2023/07/31 08:50:13;;;;;;;8.88;2.83;;;19.70;82.40;;;;;;4921151;29;20048;-79
2023/07/31 08:52:39;;;;;;;10.35;3.13;;;19.70;82.60;;;;;;4903908;29;20399;-78
2023/07/31 08:55:06;;;;;;;7.68;2.88;;;19.80;82.90;;;;;;4921078;29;20017;-77
2023/07/31 08:57:33;;;;;;;9.10;2.97;;;19.70;83.20;;;;;;4920954;29;20095;-77
2023/07/31 08:59:59;;;;;;;12.73;4.03;;;19.70;83.40;;;;;;4921135;29;20020;-77
2023/07/31 09:02:31;;;;;;;8.20;3.08;;;19.80;83.10;;;;;;4903754;29;20063;-77
2023/07/31 09:04:57;;;;;;;8.52;2.95;;;19.90;82.90;;;;;;4920837;29;20028;-77
2023/07/31 09:07:24;;;;;;;5.43;2.13;;;20.00;82.90;;;;;;4920864;29;20440;-77
2023/07/31 09:09:50;;;;;;;10.27;2.80;;;20.00;82.50;;;;;;4920962;29;20435;-77
2023/07/31 09:12:16;;;;;;;10.20;2.53;;;20.10;82.50;;;;;;4921506;29;20130;-77
2023/07/31 09:14:44;;;;;;;7.50;2.72;;;20.10;82.50;;;;;;4924204;29;20423;-77
2023/07/31 09:17:10;;;;;;;16.35;3.13;;;20.10;82.60;;;;;;4907421;29;20028;-78
2023/07/31 09:19:39;;;;;;;7.25;2.92;;;20.20;82.60;;;;;;4924251;29;20050;-77
2023/07/31 09:22:06;;;;;;;7.88;2.58;;;20.10;82.60;;;;;;4924143;29;20035;-77
2023/07/31 09:24:33;;;;;;;7.28;2.55;;;20.10;82.70;;;;;;4924142;29;20052;-77
2023/07/31 09:27:00;;;;;;;6.93;2.80;;;20.10;82.80;;;;;;4907005;29;20032;-77
2023/07/31 09:29:27;;;;;;;9.57;3.08;;;20.20;82.70;;;;;;4924066;29;20032;-77
2023/07/31 09:31:54;;;;;;;7.38;2.92;;;20.30;82.50;;;;;;4923718;29;20135;-77
2023/07/31 09:34:20;;;;;;;7.07;2.45;;;20.40;82.00;;;;;;4923825;29;20024;-78
2023/07/31 09:36:50;;;;;;;12.75;3.05;;;20.50;82.00;;;;;;4923292;29;20032;-78
2023/07/31 09:39:17;;;;;;;10.50;3.55;;;20.60;81.80;;;;;;4923936;29;20024;-78
2023/07/31 09:41:47;;;;;;;9.13;3.42;;;20.80;81.30;;;;;;4923884;29;20471;-78
2023/07/31 09:44:13;;;;;;;6.97;2.53;;;20.90;80.60;;;;;;4923868;29;20032;-78
2023/07/31 09:46:39;;;;;;;11.02;3.17;;;21.10;80.30;;;;;;4924159;29;20032;-79
2023/07/31 09:49:11;;;;;;;10.60;3.55;;;21.20;79.70;;;;;;4923786;29;20020;-78
2023/07/31 09:51:38;;;;;;;11.95;3.72;;;21.30;79.30;;;;;;4923471;29;20447;-78
2023/07/31 09:54:14;;;;;;;10.68;3.30;;;21.50;78.80;;;;;;4923614;29;20118;-78
2023/07/31 09:56:45;;;;;;;8.98;3.40;;;21.50;78.30;;;;;;4923570;29;20428;-78
2023/07/31 09:59:13;;;;;;;11.65;4.03;;;21.50;77.80;;;;;;4923721;29;20024;-78
2023/07/31 10:01:41;;;;;;;8.25;3.42;;;21.40;78.10;;;;;;4923272;29;20035;-78
2023/07/31 10:04:09;;;;;;;12.90;4.30;;;21.40;78.20;;;;;;4906039;29;20040;-77
2023/07/31 10:06:36;;;;;;;10.82;3.40;;;21.30;77.90;;;;;;4923213;29;20054;-78
2023/07/31 10:09:07;;;;;;;14.25;4.82;;;21.30;77.80;;;;;;4923358;29;20020;-78
2023/07/31 10:11:50;;;;;;;12.25;4.78;;;21.40;77.60;;;;;;4923181;29;20432;-78
2023/07/31 10:14:20;;;;;;;16.45;4.50;;;21.40;77.50;;;;;;4923399;29;20523;-78
2023/07/31 10:16:47;;;;;;;12.10;4.68;;;21.40;78.30;;;;;;4920926;29;20044;-78
2023/07/31 10:19:12;;;;;;;12.48;4.60;;;21.30;78.60;;;;;;4914697;29;20040;-78
2023/07/31 10:21:38;;;;;;;12.48;4.40;;;21.20;79.00;;;;;;4922895;29;20032;-78
2023/07/31 10:24:04;;;;;;;11.57;4.40;;;21.20;79.60;;;;;;4922780;29;20028;-78
2023/07/31 10:26:33;;;;;;;15.05;5.20;;;21.20;80.00;;;;;;4922668;29;20028;-78
2023/07/31 10:29:00;;;;;;;17.60;4.50;;;21.10;80.30;;;;;;4906964;29;20103;-78
2023/07/31 10:31:28;;;;;;;11.40;4.13;;;21.10;80.70;;;;;;4922631;29;20426;-78
2023/07/31 10:33:55;;;;;;;13.60;4.95;;;21.00;80.80;;;;;;4922784;29;20089;-77
2023/07/31 10:36:21;;;;;;;12.10;4.45;;;21.00;81.40;;;;;;4922966;29;20028;-78
2023/07/31 10:38:53;;;;;;;16.60;4.88;;;21.10;81.50;;;;;;4905824;29;20097;-77
2023/07/31 10:41:19;;;;;;;13.60;5.22;;;21.00;81.40;;;;;;4922656;29;20107;-77
2023/07/31 10:43:47;;;;;;;15.55;4.90;;;21.10;81.50;;;;;;4905608;29;20052;-78
2023/07/31 10:46:13;;;;;;;12.35;5.28;;;21.10;81.50;;;;;;4922783;29;20028;-78
2023/07/31 10:48:43;;;;;;;18.50;5.20;;;21.00;82.00;;;;;;4922857;29;20027;-78
2023/07/31 10:51:12;;;;;;;13.93;5.05;;;21.00;82.40;;;;;;4922487;29;20028;-78
2023/07/31 10:53:40;;;;;;;16.95;5.68;;;21.00;82.90;;;;;;4922638;29;20088;-78
2023/07/31 10:56:07;;;;;;;14.13;5.32;;;21.00;82.50;;;;;;4922697;29;20020;-78
2023/07/31 10:58:33;;;;;;;18.88;5.07;;;21.10;82.70;;;;;;4922541;29;20039;-78
2023/07/31 11:01:00;;;;;;;18.23;6.50;;;21.50;81.70;;;;;;4922130;29;20020;-79
2023/07/31 11:03:40;;;;;;;14.93;5.03;;;21.60;81.90;;;;;;4922238;29;20110;-77
2023/07/31 11:06:05;;;;;;;10.18;3.47;;;21.70;81.00;;;;;;4922600;29;20024;-78
2023/07/31 11:08:36;;;;;;;14.25;4.30;;;22.00;79.90;;;;;;4922185;29;20035;-78
2023/07/31 11:11:01;;;;;;;11.35;4.07;;;22.30;79.50;;;;;;4922233;29;20024;-78
2023/07/31 11:13:31;;;;;;;11.48;4.30;;;22.30;78.50;;;;;;4922088;29;20526;-78
2023/07/31 11:15:57;;;;;;;12.15;4.45;;;22.40;77.90;;;;;;4922496;29;20028;-78
2023/07/31 11:18:23;;;;;;;10.05;3.85;;;22.30;77.70;;;;;;4921967;29;20053;-78
2023/07/31 11:20:48;;;;;;;10.07;4.18;;;22.40;77.50;;;;;;4905304;29;20032;-78
2023/07/31 11:23:18;;;;;;;12.85;4.60;;;22.30;77.20;;;;;;4922047;29;20043;-79
2023/07/31 11:25:45;;;;;;;15.10;4.00;;;22.20;77.60;;;;;;4922140;29;20391;-78
2023/07/31 11:28:12;;;;;;;10.07;4.13;;;22.00;77.70;;;;;;4904595;29;20036;-78
2023/07/31 11:30:40;;;;;;;13.68;4.45;;;22.00;78.20;;;;;;4921847;29;20052;-78
2023/07/31 11:33:07;;;;;;;10.75;4.28;;;22.00;78.30;;;;;;4921839;29;20043;-78
2023/07/31 11:35:45;;;;;;;13.05;3.92;;;22.30;78.00;;;;;;4921516;29;20428;-78
2023/07/31 11:38:31;;;;;;;12.02;4.18;;;22.20;77.90;;;;;;4921637;29;20079;-78
2023/07/31 11:40:59;;;;;;;14.80;3.17;;;22.10;77.80;;;;;;4921975;29;20032;-78
2023/07/31 11:43:26;;;;;;;13.80;3.67;;;21.90;78.00;;;;;;4921624;29;20024;-78
2023/07/31 11:45:54;;;;;;;13.57;4.28;;;22.00;78.20;;;;;;4921812;29;20083;-78
2023/07/31 11:48:46;;;;;;;12.00;4.55;;;22.10;77.70;;;;;;4921571;29;20436;-78
2023/07/31 11:51:14;;;;;;;9.82;3.30;;;21.90;77.40;;;;;;4901869;29;20529;-78
2023/07/31 11:53:59;;;;;;;12.35;4.30;;;21.80;78.20;;;;;;4921663;29;20479;-78
2023/07/31 11:56:26;;;;;;;10.13;4.15;;;21.80;78.60;;;;;;4921498;29;20049;-78
2023/07/31 11:58:59;;;;;;;15.15;4.00;;;21.80;80.60;;;;;;4921712;29;20169;-78
2023/07/31 12:01:26;;;;;;;13.48;4.43;;;21.80;80.60;;;;;;4921150;29;20514;-78
2023/07/31 12:03:52;;;;;;;14.57;4.47;;;22.00;79.60;;;;;;4921395;29;20031;-78
2023/07/31 12:06:17;;;;;;;10.90;3.70;;;22.30;79.80;;;;;;4921145;29;20043;-78
2023/07/31 12:08:43;;;;;;;11.95;4.65;;;22.40;78.80;;;;;;4921517;29;20498;-78
2023/07/31 12:11:09;;;;;;;10.88;3.85;;;22.70;78.80;;;;;;4921581;29;20099;-78
2023/07/31 12:13:35;;;;;;;16.00;4.20;;;22.70;77.50;;;;;;4921521;29;20065;-78
2023/07/31 12:16:03;;;;;;;10.70;4.05;;;22.70;77.40;;;;;;4904117;29;20031;-78
2023/07/31 12:18:34;;;;;;;11.10;4.40;;;23.00;77.10;;;;;;4904301;29;20024;-78
2023/07/31 12:21:01;;;;;;;12.98;3.85;;;23.20;76.10;;;;;;4921468;29;20016;-78
2023/07/31 12:23:29;;;;;;;12.50;4.15;;;23.70;74.90;;;;;;4921530;29;20028;-78
2023/07/31 12:26:08;;;;;;;8.38;3.22;;;24.10;74.10;;;;;;4921278;29;20522;-78
2023/07/31 12:28:42;;;;;;;9.38;3.60;;;24.00;71.70;;;;;;4921515;29;20064;-78
2023/07/31 12:31:20;;;;;;;9.48;3.30;;;23.80;71.60;;;;;;4921089;29;20052;-78
2023/07/31 12:33:51;;;;;;;7.18;3.10;;;23.60;71.30;;;;;;4920631;29;20028;-78
2023/07/31 12:36:21;;;;;;;7.32;3.05;;;23.30;71.90;;;;;;4921089;29;20028;-78
2023/07/31 12:38:47;;;;;;;10.15;3.83;;;23.10;72.40;;;;;;4904075;29;20020;-78
2023/07/31 12:41:13;;;;;;;9.15;3.15;;;22.80;73.10;;;;;;4904101;29;20055;-78
2023/07/31 12:43:40;;;;;;;8.15;2.90;;;22.60;73.30;;;;;;4921231;29;20083;-78
2023/07/31 12:46:10;;;;;;;6.68;2.67;;;22.70;73.40;;;;;;4921132;29;20107;-78
2023/07/31 12:48:37;;;;;;;8.48;2.90;;;22.70;73.30;;;;;;4923867;29;20121;-78
2023/07/31 12:51:02;;;;;;;7.20;2.95;;;22.50;73.60;;;;;;4907738;29;20032;-79
2023/07/31 12:53:29;;;;;;;7.47;2.80;;;22.40;74.30;;;;;;4924502;29;20030;-78
2023/07/31 12:55:55;;;;;;;10.70;2.22;;;22.30;74.80;;;;;;4924831;29;20394;-78
2023/07/31 12:58:21;;;;;;;6.68;2.38;;;22.20;75.80;;;;;;4924946;29;20095;-78
2023/07/31 13:00:47;;;;;;;6.40;2.28;;;21.90;76.50;;;;;;4924635;29;20056;-78
2023/07/31 13:03:12;;;;;;;6.05;1.92;;;21.80;77.50;;;;;;4924474;29;20775;-78
2023/07/31 13:05:38;;;;;;;8.15;2.40;;;21.70;77.70;;;;;;4907757;29;20032;-78
2023/07/31 13:08:03;;;;;;;6.50;2.00;;;21.80;78.20;;;;;;4924508;29;20032;-77
2023/07/31 13:10:30;;;;;;;6.55;2.20;;;21.80;78.20;;;;;;4924439;29;20036;-78
2023/07/31 13:12:55;;;;;;;6.60;2.30;;;21.90;78.30;;;;;;4924330;29;20152;-78
2023/07/31 13:15:21;;;;;;;10.52;3.03;;;21.90;78.60;;;;;;4924751;29;20028;-78
2023/07/31 13:17:47;;;;;;;6.40;2.65;;;22.00;78.70;;;;;;4924317;29;20103;-78
2023/07/31 13:20:13;;;;;;;6.60;2.15;;;21.90;78.30;;;;;;4924147;29;20028;-78
2023/07/31 13:22:38;;;;;;;5.90;2.35;;;21.80;78.20;;;;;;4924406;29;20028;-78
2023/07/31 13:25:05;;;;;;;7.22;1.90;;;21.80;78.60;;;;;;4924265;29;20098;-77
2023/07/31 13:27:30;;;;;;;5.25;1.90;;;21.90;78.60;;;;;;4907363;29;20031;-78
2023/07/31 13:29:56;;;;;;;6.70;2.03;;;21.80;78.60;;;;;;4924152;29;20402;-78
2023/07/31 13:32:22;;;;;;;4.68;2.20;;;21.80;78.90;;;;;;4923779;29;20048;-78
2023/07/31 13:34:48;;;;;;;3.95;1.70;;;21.70;79.40;;;;;;4906897;29;20439;-78
2023/07/31 13:37:14;;;;;;;4.63;2.10;;;21.60;79.60;;;;;;4923985;29;20021;-78
2023/07/31 13:39:40;;;;;;;6.85;1.63;;;21.40;80.30;;;;;;4923882;29;20116;-78
2023/07/31 13:42:08;;;;;;;7.25;2.13;;;21.40;80.80;;;;;;4906846;29;20116;-78
2023/07/31 13:44:37;;;;;;;5.80;2.05;;;21.40;80.80;;;;;;4923805;29;20028;-78
2023/07/31 13:47:03;;;;;;;8.95;2.22;;;21.50;81.30;;;;;;4923947;29;20173;-78
2023/07/31 13:49:29;;;;;;;5.38;1.75;;;21.50;81.70;;;;;;4923266;29;20098;-78
2023/07/31 13:51:55;;;;;;;4.40;1.90;;;21.50;82.80;;;;;;4923141;29;20059;-78
2023/07/31 13:54:22;;;;;;;6.32;2.00;;;21.20;83.60;;;;;;4923684;29;20028;-78
2023/07/31 13:56:48;;;;;;;4.05;1.77;;;21.20;83.90;;;;;;4923748;29;20498;-78
2023/07/31 13:59:16;;;;;;;8.30;2.03;;;20.90;84.50;;;;;;4922651;29;20032;-77
2023/07/31 14:01:41;;;;;;;5.25;2.15;;;20.80;85.00;;;;;;4923294;29;20411;-77
2023/07/31 14:04:07;;;;;;;8.13;2.75;;;20.80;85.70;;;;;;4923178;29;20024;-77
2023/07/31 14:06:32;;;;;;;8.90;2.63;;;20.80;86.00;;;;;;4907181;29;20043;-77
2023/07/31 14:08:58;;;;;;;6.68;2.20;;;20.80;86.00;;;;;;4922049;29;20032;-77
2023/07/31 14:11:24;;;;;;;6.65;1.95;;;20.90;86.00;;;;;;4923402;29;20519;-77
2023/07/31 14:13:50;;;;;;;6.50;2.38;;;20.90;86.10;;;;;;4923521;29;20031;-77
2023/07/31 14:16:16;;;;;;;6.28;2.17;;;20.80;85.80;;;;;;4923433;29;20087;-77
2023/07/31 14:18:42;;;;;;;6.05;2.03;;;20.70;86.20;;;;;;4906044;29;20052;-77
2023/07/31 14:21:07;;;;;;;5.00;1.90;;;20.80;86.40;;;;;;4923342;29;20028;-77
2023/07/31 14:23:33;;;;;;;8.48;2.10;;;20.60;86.70;;;;;;4923131;29;20109;-77
2023/07/31 14:25:59;;;;;;;4.38;1.70;;;20.50;87.00;;;;;;4905950;29;20028;-76
2023/07/31 14:28:24;;;;;;;8.20;1.73;;;20.40;87.30;;;;;;4922949;29;20043;-77
2023/07/31 14:30:50;;;;;;;3.92;1.50;;;20.30;87.30;;;;;;4922866;29;20063;-76
2023/07/31 14:33:16;;;;;;;3.33;1.35;;;20.30;87.60;;;;;;4923162;29;20088;-77
2023/07/31 14:35:41;;;;;;;5.63;1.90;;;20.30;87.90;;;;;;4922750;29;20067;-77
2023/07/31 14:38:07;;;;;;;4.28;1.40;;;20.30;88.20;;;;;;4922785;29;20028;-77
2023/07/31 14:40:32;;;;;;;4.57;1.75;;;20.10;88.70;;;;;;4922841;29;20027;-77
2023/07/31 14:42:58;;;;;;;4.53;1.35;;;20.10;89.10;;;;;;4921614;29;20035;-76
2023/07/31 14:45:24;;;;;;;6.75;1.58;;;19.90;89.60;;;;;;4922836;29;20032;-76
2023/07/31 14:47:49;;;;;;;3.47;1.15;;;19.80;90.20;;;;;;4921326;29;20036;-77
2023/07/31 14:50:16;;;;;;;5.20;1.60;;;19.80;90.40;;;;;;4922527;29;20461;-77
2023/07/31 14:52:41;;;;;;;6.75;1.67;;;19.80;90.90;;;;;;4922532;29;20436;-77
2023/07/31 14:55:08;;;;;;;7.28;1.80;;;19.80;90.50;;;;;;4921171;29;20020;-77
2023/07/31 14:57:34;;;;;;;3.58;1.17;;;19.80;90.80;;;;;;4922721;29;20126;-77
2023/07/31 14:59:59;;;;;;;4.65;1.58;;;19.90;90.70;;;;;;4922326;29;20051;-77
2023/07/31 15:02:27;;;;;;;4.00;1.92;;;19.90;90.50;;;;;;4922213;29;20043;-76
2023/07/31 15:04:52;;;;;;;7.30;3.30;;;20.00;90.80;;;;;;4922276;29;20028;-76
2023/07/31 15:07:18;;;;;;;9.40;3.22;;;20.10;90.60;;;;;;4922357;29;20479;-77
2023/07/31 15:09:44;;;;;;;10.23;2.90;;;20.10;89.60;;;;;;4922196;29;20024;-77
2023/07/31 15:12:10;;;;;;;7.05;2.75;;;20.10;90.10;;;;;;4922149;29;20496;-77
2023/07/31 15:14:36;;;;;;;8.95;2.63;;;20.20;90.10;;;;;;4922206;29;20017;-77
2023/07/31 15:17:01;;;;;;;9.38;3.30;;;20.20;89.80;;;;;;4905143;29;20080;-77
2023/07/31 15:19:27;;;;;;;5.07;1.83;;;20.30;89.50;;;;;;4922301;29;20070;-77
2023/07/31 15:21:52;;;;;;;4.72;1.98;;;20.30;89.40;;;;;;4921936;29;20091;-77
2023/07/31 15:24:18;;;;;;;5.82;2.15;;;20.30;89.10;;;;;;4922020;29;20056;-77
2023/07/31 15:26:44;;;;;;;6.90;2.13;;;20.40;89.50;;;;;;4922025;29;20032;-77
2023/07/31 15:29:11;;;;;;;5.80;2.55;;;20.40;89.30;;;;;;4904903;29;20035;-77
2023/07/31 15:31:40;;;;;;;7.13;2.33;;;20.50;89.30;;;;;;4904591;29;20139;-77
2023/07/31 15:34:06;;;;;;;6.63;2.17;;;20.60;89.00;;;;;;4921760;29;20024;-77
2023/07/31 15:36:32;;;;;;;5.25;1.70;;;20.60;89.00;;;;;;4904697;29;20034;-77
2023/07/31 15:38:58;;;;;;;7.60;2.10;;;20.50;88.70;;;;;;4921842;29;20029;-77
2023/07/31 15:41:25;;;;;;;5.32;1.80;;;20.40;88.90;;;;;;4921712;29;20108;-77
2023/07/31 15:43:50;;;;;;;5.57;1.95;;;20.40;88.90;;;;;;4921941;29;20032;-77
2023/07/31 15:46:17;;;;;;;4.13;1.70;;;20.40;89.00;;;;;;4921916;29;20598;-77
2023/07/31 15:48:42;;;;;;;5.60;2.13;;;20.40;89.20;;;;;;4921076;29;20051;-77
2023/07/31 15:51:08;;;;;;;6.10;2.20;;;20.40;89.00;;;;;;4921687;29;20494;-77
2023/07/31 15:53:34;;;;;;;5.47;2.00;;;20.40;89.20;;;;;;4921509;29;20036;-77
2023/07/31 15:55:59;;;;;;;6.85;1.90;;;20.40;89.00;;;;;;4921660;29;20455;-77
2023/07/31 15:58:25;;;;;;;5.53;2.17;;;20.30;89.00;;;;;;4922087;29;20096;-77
2023/07/31 16:00:51;;;;;;;5.40;1.60;;;20.40;89.30;;;;;;4904215;29;20024;-77
2023/07/31 16:03:16;;;;;;;6.13;2.25;;;20.30;89.20;;;;;;4912478;29;20036;-77
2023/07/31 16:05:42;;;;;;;8.02;2.83;;;20.30;89.30;;;;;;4919673;29;20032;-77
2023/07/31 16:08:08;;;;;;;5.38;2.00;;;20.30;89.50;;;;;;4921354;29;20040;-77
2023/07/31 16:10:34;;;;;;;5.88;1.90;;;20.30;89.60;;;;;;4919886;29;20546;-77
2023/07/31 16:12:59;;;;;;;7.43;2.40;;;20.20;89.50;;;;;;4921304;29;20043;-77
2023/07/31 16:15:25;;;;;;;9.25;2.38;;;20.30;89.60;;;;;;4920002;29;20120;-76
2023/07/31 16:17:51;;;;;;;9.30;2.85;;;20.30;89.60;;;;;;4920112;29;20028;-77
2023/07/31 16:20:16;;;;;;;9.30;2.42;;;20.20;89.70;;;;;;4921235;29;20395;-77
2023/07/31 16:22:42;;;;;;;6.50;2.92;;;20.20;89.90;;;;;;4922685;29;20106;-76
2023/07/31 16:25:10;;;;;;;7.05;2.67;;;20.20;89.90;;;;;;4925099;29;20028;-76
2023/07/31 16:27:36;;;;;;;11.35;3.97;;;20.10;89.80;;;;;;4925253;29;20103;-77
2023/07/31 16:30:02;;;;;;;10.32;3.75;;;20.10;90.20;;;;;;4924498;29;20027;-77
2023/07/31 16:32:27;;;;;;;14.85;3.45;;;20.10;90.10;;;;;;4924652;29;20502;-76
2023/07/31 16:34:53;;;;;;;7.45;3.35;;;20.20;90.00;;;;;;4925207;29;20020;-77
2023/07/31 16:37:19;;;;;;;17.85;3.65;;;20.20;89.90;;;;;;4925055;29;20056;-77
2023/07/31 16:39:48;;;;;;;9.60;3.72;;;20.00;90.10;;;;;;4924967;29;20498;-76
2023/07/31 16:42:14;;;;;;;12.15;3.88;;;20.00;90.30;;;;;;4924926;29;20048;-77
2023/07/31 16:44:40;;;;;;;16.25;3.80;;;20.00;90.20;;;;;;4924481;29;20060;-77
2023/07/31 16:47:06;;;;;;;13.43;4.00;;;20.00;90.40;;;;;;4923437;29;20035;-77
2023/07/31 16:49:31;;;;;;;16.33;4.43;;;20.10;90.40;;;;;;4923474;29;20030;-76
2023/07/31 16:51:57;;;;;;;16.10;4.70;;;20.10;90.30;;;;;;4924776;29;20105;-77
2023/07/31 16:54:23;;;;;;;19.55;5.25;;;20.10;90.40;;;;;;4924609;29;20024;-77
2023/07/31 16:56:49;;;;;;;18.60;4.90;;;20.10;90.20;;;;;;4923203;29;20024;-76
2023/07/31 16:59:17;;;;;;;16.33;5.15;;;20.20;90.30;;;;;;4924741;29;20435;-77
2023/07/31 17:01:42;;;;;;;19.80;5.45;;;20.20;90.20;;;;;;4924403;29;20028;-77
2023/07/31 17:04:08;;;;;;;22.08;5.50;;;20.20;90.10;;;;;;4924297;29;20121;-77
2023/07/31 17:06:34;;;;;;;24.95;6.25;;;20.20;90.20;;;;;;4924431;29;20032;-77
2023/07/31 17:09:00;;;;;;;19.83;5.97;;;20.10;90.10;;;;;;4924694;29;20507;-77